Jenkins, Minnesota
Current Conditions -  °F | °C
As of 11:14 PM on Sunday 19 Oct 2014 (Local Time) from KPWC Reporting Station
Clear Clear  
Wind Chill:   Ceiling: Unl
Heat Index:   Visibility: 10mi
Dew Point:   Wind: 0mph
Humidity: 82%   Direction: NA
Pressure: 29.91"   Gusts: NA
Location:  46.65°N, 94.33°W
Report Text: KPWC 200414Z AUTO 00000KT 10SM CLR 09/06 A2991 RMK AO2
Loading
Personal Weather Stations






























Interactive Weather Map
Tropical Storm Tracking
New forecast layout! Learn more

10-Day Weather Forecast

Advertisements
Track Severe Weather on mobile